sensor_id;sensor_type;location;lat;lon;timestamp;pressure;altitude;pressure_sealevel;temperature;humidity
73870;BME280;64924;42.140;24.762;2023-07-22T00:02:05;99439.19;;;28.23;46.55
73870;BME280;64924;42.140;24.762;2023-07-22T00:04:30;99438.63;;;28.35;46.25
73870;BME280;64924;42.140;24.762;2023-07-22T00:06:56;99435.00;;;28.35;46.14
73870;BME280;64924;42.140;24.762;2023-07-22T00:09:21;99442.94;;;28.41;46.15
73870;BME280;64924;42.140;24.762;2023-07-22T00:11:49;99432.72;;;28.37;46.22
73870;BME280;64924;42.140;24.762;2023-07-22T00:14:15;99415.81;;;28.19;46.50
73870;BME280;64924;42.140;24.762;2023-07-22T00:16:40;99428.38;;;28.31;46.24
73870;BME280;64924;42.140;24.762;2023-07-22T00:19:06;99427.56;;;28.30;46.43
73870;BME280;64924;42.140;24.762;2023-07-22T00:21:32;99421.13;;;28.21;46.42
73870;BME280;64924;42.140;24.762;2023-07-22T00:23:59;99436.41;;;28.23;46.52
73870;BME280;64924;42.140;24.762;2023-07-22T00:26:25;99405.06;;;27.90;47.12
73870;BME280;64924;42.140;24.762;2023-07-22T00:28:51;99407.31;;;28.02;46.92
73870;BME280;64924;42.140;24.762;2023-07-22T00:31:16;99434.78;;;28.09;46.90
73870;BME280;64924;42.140;24.762;2023-07-22T00:33:42;99440.50;;;28.04;47.44
73870;BME280;64924;42.140;24.762;2023-07-22T00:36:07;99447.16;;;27.94;47.41
73870;BME280;64924;42.140;24.762;2023-07-22T00:38:33;99439.72;;;27.89;47.55
73870;BME280;64924;42.140;24.762;2023-07-22T00:40:58;99446.31;;;27.93;47.48
73870;BME280;64924;42.140;24.762;2023-07-22T00:43:24;99452.28;;;27.78;47.75
73870;BME280;64924;42.140;24.762;2023-07-22T00:45:51;99448.47;;;27.74;48.23
73870;BME280;64924;42.140;24.762;2023-07-22T00:48:17;99446.06;;;27.81;48.13
73870;BME280;64924;42.140;24.762;2023-07-22T00:50:43;99440.09;;;27.74;48.15
73870;BME280;64924;42.140;24.762;2023-07-22T00:53:09;99451.03;;;27.84;47.78
73870;BME280;64924;42.140;24.762;2023-07-22T00:55:37;99452.94;;;27.98;47.78
73870;BME280;64924;42.140;24.762;2023-07-22T00:58:04;99453.06;;;27.92;47.25
73870;BME280;64924;42.140;24.762;2023-07-22T01:00:29;99461.63;;;27.96;47.60
73870;BME280;64924;42.140;24.762;2023-07-22T01:02:55;99468.44;;;28.04;47.41
73870;BME280;64924;42.140;24.762;2023-07-22T01:05:20;99472.88;;;28.05;47.23
73870;BME280;64924;42.140;24.762;2023-07-22T01:07:46;99475.31;;;28.20;46.95
73870;BME280;64924;42.140;24.762;2023-07-22T01:10:13;99463.47;;;28.37;46.62
73870;BME280;64924;42.140;24.762;2023-07-22T01:12:40;99471.22;;;28.40;46.62
73870;BME280;64924;42.140;24.762;2023-07-22T01:15:05;99484.34;;;28.39;46.56
73870;BME280;64924;42.140;24.762;2023-07-22T01:17:33;99439.50;;;28.22;46.48
73870;BME280;64924;42.140;24.762;2023-07-22T01:20:00;99474.63;;;28.59;46.03
73870;BME280;64924;42.140;24.762;2023-07-22T01:22:27;99466.56;;;28.57;45.97
73870;BME280;64924;42.140;24.762;2023-07-22T01:24:53;99428.38;;;28.31;46.19
73870;BME280;64924;42.140;24.762;2023-07-22T01:27:19;99468.56;;;28.66;45.88
73870;BME280;64924;42.140;24.762;2023-07-22T01:29:45;99475.31;;;28.65;45.55
73870;BME280;64924;42.140;24.762;2023-07-22T01:32:10;99485.06;;;28.76;45.41
73870;BME280;64924;42.140;24.762;2023-07-22T01:34:35;99484.75;;;28.77;45.41
73870;BME280;64924;42.140;24.762;2023-07-22T01:37:01;99486.72;;;28.77;45.59
73870;BME280;64924;42.140;24.762;2023-07-22T01:39:27;99435.16;;;28.60;45.28
73870;BME280;64924;42.140;24.762;2023-07-22T01:41:52;99470.72;;;28.91;44.91
73870;BME280;64924;42.140;24.762;2023-07-22T01:44:18;99475.31;;;28.87;45.17
73870;BME280;64924;42.140;24.762;2023-07-22T01:46:43;99493.16;;;28.77;45.34
73870;BME280;64924;42.140;24.762;2023-07-22T01:49:12;99482.41;;;28.71;45.63
73870;BME280;64924;42.140;24.762;2023-07-22T01:51:38;99493.22;;;28.63;45.85
73870;BME280;64924;42.140;24.762;2023-07-22T01:54:04;99493.09;;;28.69;45.54
73870;BME280;64924;42.140;24.762;2023-07-22T01:56:30;99488.00;;;28.71;45.52
73870;BME280;64924;42.140;24.762;2023-07-22T01:58:56;99474.34;;;28.69;45.85
73870;BME280;64924;42.140;24.762;2023-07-22T02:01:21;99474.72;;;28.76;45.35
73870;BME280;64924;42.140;24.762;2023-07-22T02:03:47;99474.72;;;28.76;45.31
73870;BME280;64924;42.140;24.762;2023-07-22T02:06:12;99490.53;;;28.81;45.33
73870;BME280;64924;42.140;24.762;2023-07-22T02:08:38;99491.91;;;28.83;45.47
73870;BME280;64924;42.140;24.762;2023-07-22T02:11:06;99492.28;;;28.90;45.29
73870;BME280;64924;42.140;24.762;2023-07-22T02:13:33;99484.72;;;28.91;45.29
73870;BME280;64924;42.140;24.762;2023-07-22T02:15:59;99494.75;;;28.92;45.13
73870;BME280;64924;42.140;24.762;2023-07-22T02:18:25;99465.94;;;28.69;45.26
73870;BME280;64924;42.140;24.762;2023-07-22T02:20:51;99495.44;;;28.75;45.62
73870;BME280;64924;42.140;24.762;2023-07-22T02:23:16;99491.94;;;28.70;45.59
73870;BME280;64924;42.140;24.762;2023-07-22T02:25:43;99501.22;;;28.79;45.43
73870;BME280;64924;42.140;24.762;2023-07-22T02:28:09;99497.28;;;28.80;45.39
73870;BME280;64924;42.140;24.762;2023-07-22T02:30:36;99491.31;;;28.73;45.38
73870;BME280;64924;42.140;24.762;2023-07-22T02:33:02;99506.81;;;28.79;45.67
73870;BME280;64924;42.140;24.762;2023-07-22T02:35:28;99495.88;;;28.69;45.70
73870;BME280;64924;42.140;24.762;2023-07-22T02:37:54;99509.75;;;28.74;45.50
73870;BME280;64924;42.140;24.762;2023-07-22T02:40:19;99504.78;;;28.71;45.97
73870;BME280;64924;42.140;24.762;2023-07-22T02:42:45;99496.22;;;28.67;45.82
73870;BME280;64924;42.140;24.762;2023-07-22T02:45:10;99485.81;;;28.59;46.29
73870;BME280;64924;42.140;24.762;2023-07-22T02:47:38;99485.16;;;28.62;46.28
73870;BME280;64924;42.140;24.762;2023-07-22T02:50:05;99477.78;;;28.66;46.36
73870;BME280;64924;42.140;24.762;2023-07-22T02:52:31;99481.09;;;28.68;46.10
73870;BME280;64924;42.140;24.762;2023-07-22T02:55:11;99482.22;;;28.67;46.05
73870;BME280;64924;42.140;24.762;2023-07-22T02:57:38;99487.13;;;28.61;46.00
73870;BME280;64924;42.140;24.762;2023-07-22T03:00:05;99489.91;;;28.61;46.15
73870;BME280;64924;42.140;24.762;2023-07-22T03:02:34;99484.31;;;28.61;46.03
73870;BME280;64924;42.140;24.762;2023-07-22T03:05:00;99491.72;;;28.57;46.14
73870;BME280;64924;42.140;24.762;2023-07-22T03:07:26;99488.44;;;28.64;46.16
73870;BME280;64924;42.140;24.762;2023-07-22T03:09:53;99454.13;;;28.41;46.25
73870;BME280;64924;42.140;24.762;2023-07-22T03:12:18;99490.94;;;28.66;46.32
73870;BME280;64924;42.140;24.762;2023-07-22T03:14:43;99475.31;;;28.65;46.06
73870;BME280;64924;42.140;24.762;2023-07-22T03:17:09;99483.06;;;28.68;45.85
73870;BME280;64924;42.140;24.762;2023-07-22T03:19:34;99485.84;;;28.68;46.32
73870;BME280;64924;42.140;24.762;2023-07-22T03:22:01;99477.47;;;28.68;46.11
73870;BME280;64924;42.140;24.762;2023-07-22T03:24:26;99488.84;;;28.71;46.35
73870;BME280;64924;42.140;24.762;2023-07-22T03:26:51;99471.59;;;28.78;45.63
73870;BME280;64924;42.140;24.762;2023-07-22T03:29:17;99482.41;;;28.93;45.60
73870;BME280;64924;42.140;24.762;2023-07-22T03:31:42;99483.25;;;29.02;45.42
73870;BME280;64924;42.140;24.762;2023-07-22T03:34:08;99498.25;;;29.06;45.13
73870;BME280;64924;42.140;24.762;2023-07-22T03:36:33;99498.22;;;28.98;45.29
73870;BME280;64924;42.140;24.762;2023-07-22T03:38:59;99498.41;;;29.01;45.40
73870;BME280;64924;42.140;24.762;2023-07-22T03:41:25;99502.06;;;29.10;45.16
73870;BME280;64924;42.140;24.762;2023-07-22T03:43:50;99502.44;;;29.17;44.83
73870;BME280;64924;42.140;24.762;2023-07-22T03:46:16;99502.97;;;29.28;44.58
73870;BME280;64924;42.140;24.762;2023-07-22T03:48:41;99492.81;;;29.41;44.59
73870;BME280;64924;42.140;24.762;2023-07-22T03:51:07;99494.00;;;29.48;44.43
73870;BME280;64924;42.140;24.762;2023-07-22T03:53:32;99502.47;;;29.66;43.77
73870;BME280;64924;42.140;24.762;2023-07-22T03:55:58;99500.50;;;29.83;43.35
73870;BME280;64924;42.140;24.762;2023-07-22T03:58:23;99500.56;;;30.01;42.88
73870;BME280;64924;42.140;24.762;2023-07-22T04:00:49;99497.72;;;30.09;42.68
73870;BME280;64924;42.140;24.762;2023-07-22T04:03:15;99503.03;;;30.28;42.70
73870;BME280;64924;42.140;24.762;2023-07-22T04:05:40;99499.41;;;30.19;42.51
73870;BME280;64924;42.140;24.762;2023-07-22T04:08:06;99522.97;;;30.35;42.16
73870;BME280;64924;42.140;24.762;2023-07-22T04:10:31;99479.94;;;30.22;42.23
73870;BME280;64924;42.140;24.762;2023-07-22T04:12:57;99521.50;;;30.64;41.82
73870;BME280;64924;42.140;24.762;2023-07-22T04:15:22;99484.38;;;30.58;41.57
73870;BME280;64924;42.140;24.762;2023-07-22T04:17:48;99503.94;;;30.84;41.46
73870;BME280;64924;42.140;24.762;2023-07-22T04:20:14;99497.50;;;30.83;41.37
73870;BME280;64924;42.140;24.762;2023-07-22T04:22:39;99513.16;;;31.02;41.09
73870;BME280;64924;42.140;24.762;2023-07-22T04:25:05;99515.59;;;31.12;40.70
73870;BME280;64924;42.140;24.762;2023-07-22T04:27:31;99483.59;;;31.13;40.19
73870;BME280;64924;42.140;24.762;2023-07-22T04:29:56;99512.66;;;31.46;40.28
73870;BME280;64924;42.140;24.762;2023-07-22T04:32:22;99517.53;;;31.58;39.65
73870;BME280;64924;42.140;24.762;2023-07-22T04:34:48;99486.94;;;31.36;40.28
73870;BME280;64924;42.140;24.762;2023-07-22T04:37:13;99518.31;;;31.38;40.26
73870;BME280;64924;42.140;24.762;2023-07-22T04:39:39;99515.03;;;31.36;40.40
73870;BME280;64924;42.140;24.762;2023-07-22T04:42:04;99486.41;;;31.04;40.60
73870;BME280;64924;42.140;24.762;2023-07-22T04:44:30;99518.31;;;31.38;39.95
73870;BME280;64924;42.140;24.762;2023-07-22T04:46:55;99519.19;;;31.59;40.08
73870;BME280;64924;42.140;24.762;2023-07-22T04:49:21;99512.06;;;31.70;39.23
73870;BME280;64924;42.140;24.762;2023-07-22T04:51:47;99506.25;;;31.75;39.37
73870;BME280;64924;42.140;24.762;2023-07-22T04:54:14;99502.56;;;31.83;39.40
73870;BME280;64924;42.140;24.762;2023-07-22T04:56:41;99516.66;;;31.96;39.05
73870;BME280;64924;42.140;24.762;2023-07-22T04:59:06;99508.25;;;31.96;39.06
73870;BME280;64924;42.140;24.762;2023-07-22T05:01:32;99512.19;;;32.24;38.75
73870;BME280;64924;42.140;24.762;2023-07-22T05:03:58;99515.94;;;32.49;38.09
73870;BME280;64924;42.140;24.762;2023-07-22T05:06:23;99516.22;;;32.68;37.67
73870;BME280;64924;42.140;24.762;2023-07-22T05:08:49;99512.38;;;32.73;37.51
73870;BME280;64924;42.140;24.762;2023-07-22T05:11:14;99485.00;;;32.49;37.54
73870;BME280;64924;42.140;24.762;2023-07-22T05:13:40;99507.16;;;32.50;37.90
73870;BME280;64924;42.140;24.762;2023-07-22T05:16:05;99514.34;;;32.60;37.88
73870;BME280;64924;42.140;24.762;2023-07-22T05:18:31;99491.50;;;32.74;37.16
73870;BME280;64924;42.140;24.762;2023-07-22T05:20:56;99508.63;;;33.02;36.87
73870;BME280;64924;42.140;24.762;2023-07-22T05:23:21;99512.53;;;33.21;36.58
73870;BME280;64924;42.140;24.762;2023-07-22T05:25:51;99521.00;;;33.46;36.22
73870;BME280;64924;42.140;24.762;2023-07-22T05:28:17;99522.78;;;33.63;36.06
73870;BME280;64924;42.140;24.762;2023-07-22T05:30:43;99504.59;;;33.72;35.37
73870;BME280;64924;42.140;24.762;2023-07-22T05:33:08;99516.91;;;33.92;34.90
73870;BME280;64924;42.140;24.762;2023-07-22T05:35:34;99518.78;;;34.00;34.54
73870;BME280;64924;42.140;24.762;2023-07-22T05:37:59;99512.03;;;34.17;34.55
73870;BME280;64924;42.140;24.762;2023-07-22T05:40:27;99477.06;;;34.06;34.33
73870;BME280;64924;42.140;24.762;2023-07-22T05:42:52;99520.66;;;34.48;33.86
73870;BME280;64924;42.140;24.762;2023-07-22T05:45:18;99480.84;;;34.38;33.67
73870;BME280;64924;42.140;24.762;2023-07-22T05:47:43;99508.88;;;34.87;33.38
73870;BME280;64924;42.140;24.762;2023-07-22T05:50:09;99511.28;;;35.47;32.55
73870;BME280;64924;42.140;24.762;2023-07-22T05:52:34;99516.44;;;35.93;31.79
73870;BME280;64924;42.140;24.762;2023-07-22T05:55:00;99474.63;;;36.21;30.73
73870;BME280;64924;42.140;24.762;2023-07-22T05:57:25;99474.63;;;36.79;29.84
73870;BME280;64924;42.140;24.762;2023-07-22T05:59:51;99509.09;;;37.50;29.16
73870;BME280;64924;42.140;24.762;2023-07-22T06:02:17;99491.28;;;38.02;28.14
73870;BME280;64924;42.140;24.762;2023-07-22T06:04:43;99505.78;;;38.53;27.43
73870;BME280;64924;42.140;24.762;2023-07-22T06:07:09;99495.41;;;38.68;27.41
73870;BME280;64924;42.140;24.762;2023-07-22T06:09:34;99511.63;;;39.45;26.54
73870;BME280;64924;42.140;24.762;2023-07-22T06:12:01;99503.94;;;40.00;25.59
73870;BME280;64924;42.140;24.762;2023-07-22T06:14:26;99502.16;;;40.44;24.67
73870;BME280;64924;42.140;24.762;2023-07-22T06:16:52;99498.63;;;40.75;24.31
73870;BME280;64924;42.140;24.762;2023-07-22T06:19:18;99497.03;;;40.99;23.61
73870;BME280;64924;42.140;24.762;2023-07-22T06:21:43;99493.41;;;41.09;23.67
73870;BME280;64924;42.140;24.762;2023-07-22T06:24:09;99490.13;;;41.07;23.69
73870;BME280;64924;42.140;24.762;2023-07-22T06:26:35;99486.91;;;41.40;23.40
73870;BME280;64924;42.140;24.762;2023-07-22T06:29:01;99488.53;;;41.84;22.78
73870;BME280;64924;42.140;24.762;2023-07-22T06:31:26;99499.13;;;41.94;22.16
73870;BME280;64924;42.140;24.762;2023-07-22T06:33:55;99496.22;;;42.16;22.00
73870;BME280;64924;42.140;24.762;2023-07-22T06:36:21;99492.44;;;42.44;21.74
73870;BME280;64924;42.140;24.762;2023-07-22T06:38:47;99495.84;;;43.01;21.53
73870;BME280;64924;42.140;24.762;2023-07-22T06:41:13;99468.09;;;43.46;20.74
73870;BME280;64924;42.140;24.762;2023-07-22T06:43:38;99495.75;;;44.08;20.43
73870;BME280;64924;42.140;24.762;2023-07-22T06:46:03;99491.16;;;44.52;19.90
73870;BME280;64924;42.140;24.762;2023-07-22T06:48:29;99489.91;;;45.10;18.94
73870;BME280;64924;42.140;24.762;2023-07-22T06:50:54;99464.91;;;45.11;18.89
73870;BME280;64924;42.140;24.762;2023-07-22T06:53:22;99444.63;;;44.67;19.02
73870;BME280;64924;42.140;24.762;2023-07-22T06:55:52;99466.38;;;45.22;19.02
73870;BME280;64924;42.140;24.762;2023-07-22T06:58:21;99496.75;;;45.90;18.61
73870;BME280;64924;42.140;24.762;2023-07-22T07:00:48;99474.50;;;45.98;18.53
73870;BME280;64924;42.140;24.762;2023-07-22T07:03:17;99471.84;;;46.46;17.54
73870;BME280;64924;42.140;24.762;2023-07-22T07:05:43;99503.97;;;46.61;17.76
73870;BME280;64924;42.140;24.762;2023-07-22T07:08:08;99503.91;;;46.25;17.87
73870;BME280;64924;42.140;24.762;2023-07-22T07:10:39;99491.88;;;46.50;17.74
73870;BME280;64924;42.140;24.762;2023-07-22T07:13:05;99493.28;;;46.42;17.77
73870;BME280;64924;42.140;24.762;2023-07-22T07:15:30;99464.75;;;46.11;17.79
73870;BME280;64924;42.140;24.762;2023-07-22T07:17:56;99494.81;;;45.63;18.48
73870;BME280;64924;42.140;24.762;2023-07-22T07:20:21;99487.41;;;45.39;18.58
73870;BME280;64924;42.140;24.762;2023-07-22T07:22:47;99492.06;;;45.03;19.43
73870;BME280;64924;42.140;24.762;2023-07-22T07:25:12;99488.31;;;45.33;18.60
73870;BME280;64924;42.140;24.762;2023-07-22T07:27:40;99456.69;;;44.86;19.11
73870;BME280;64924;42.140;24.762;2023-07-22T07:30:06;99490.78;;;45.07;18.91
73870;BME280;64924;42.140;24.762;2023-07-22T07:32:33;99505.44;;;45.13;19.05
73870;BME280;64924;42.140;24.762;2023-07-22T07:34:58;99481.25;;;45.64;18.72
73870;BME280;64924;42.140;24.762;2023-07-22T07:37:24;99492.16;;;45.96;18.20
73870;BME280;64924;42.140;24.762;2023-07-22T07:39:50;99497.06;;;46.39;17.51
73870;BME280;64924;42.140;24.762;2023-07-22T07:42:15;99488.22;;;46.69;17.68
73870;BME280;64924;42.140;24.762;2023-07-22T07:44:41;99481.25;;;46.07;17.62
73870;BME280;64924;42.140;24.762;2023-07-22T07:47:06;99482.31;;;45.97;17.91
73870;BME280;64924;42.140;24.762;2023-07-22T07:49:32;99493.78;;;46.17;17.84
73870;BME280;64924;42.140;24.762;2023-07-22T07:51:58;99491.47;;;45.88;18.10
73870;BME280;64924;42.140;24.762;2023-07-22T07:54:23;99472.81;;;44.73;19.48
73870;BME280;64924;42.140;24.762;2023-07-22T07:56:49;99492.44;;;44.47;20.01
73870;BME280;64924;42.140;24.762;2023-07-22T07:59:14;99469.78;;;43.85;20.17
73870;BME280;64924;42.140;24.762;2023-07-22T08:01:40;99497.28;;;43.79;20.40
73870;BME280;64924;42.140;24.762;2023-07-22T08:04:08;99497.66;;;43.81;20.10
73870;BME280;64924;42.140;24.762;2023-07-22T08:06:34;99491.06;;;44.21;19.79
73870;BME280;64924;42.140;24.762;2023-07-22T08:08:59;99502.44;;;44.62;19.10
73870;BME280;64924;42.140;24.762;2023-07-22T08:11:25;99508.97;;;44.66;19.75
73870;BME280;64924;42.140;24.762;2023-07-22T08:13:51;99500.34;;;44.97;19.17
73870;BME280;64924;42.140;24.762;2023-07-22T08:16:17;99485.91;;;44.74;19.53
73870;BME280;64924;42.140;24.762;2023-07-22T08:18:43;99494.53;;;44.09;20.39
73870;BME280;64924;42.140;24.762;2023-07-22T08:21:09;99499.72;;;43.32;21.21
73870;BME280;64924;42.140;24.762;2023-07-22T08:23:36;99454.31;;;42.71;21.46
73870;BME280;64924;42.140;24.762;2023-07-22T08:26:02;99448.97;;;41.79;22.63
73870;BME280;64924;42.140;24.762;2023-07-22T08:28:30;99461.25;;;41.19;23.59
73870;BME280;64924;42.140;24.762;2023-07-22T08:30:57;99475.06;;;41.03;23.99
73870;BME280;64924;42.140;24.762;2023-07-22T08:33:23;99470.63;;;41.20;23.24
73870;BME280;64924;42.140;24.762;2023-07-22T08:35:50;99468.16;;;41.71;23.23
73870;BME280;64924;42.140;24.762;2023-07-22T08:38:16;99470.94;;;41.96;22.38
73870;BME280;64924;42.140;24.762;2023-07-22T08:40:42;99441.59;;;42.03;22.59
73870;BME280;64924;42.140;24.762;2023-07-22T08:43:09;99421.81;;;42.41;21.50
73870;BME280;64924;42.140;24.762;2023-07-22T08:45:38;99462.34;;;43.01;21.58
73870;BME280;64924;42.140;24.762;2023-07-22T08:48:06;99442.31;;;43.01;21.27
73870;BME280;64924;42.140;24.762;2023-07-22T08:50:53;99473.56;;;43.30;20.77
73870;BME280;64924;42.140;24.762;2023-07-22T08:53:20;99457.84;;;43.04;21.20
73870;BME280;64924;42.140;24.762;2023-07-22T08:55:46;99457.28;;;43.23;21.16
73870;BME280;64924;42.140;24.762;2023-07-22T08:58:13;99458.88;;;43.28;21.33
73870;BME280;64924;42.140;24.762;2023-07-22T09:00:39;99455.28;;;43.13;20.71
73870;BME280;64924;42.140;24.762;2023-07-22T09:03:06;99441.25;;;42.70;21.61
73870;BME280;64924;42.140;24.762;2023-07-22T09:05:33;99420.31;;;42.18;22.00
73870;BME280;64924;42.140;24.762;2023-07-22T09:08:00;99441.69;;;41.39;22.93
73870;BME280;64924;42.140;24.762;2023-07-22T09:10:27;99437.56;;;40.87;23.70
73870;BME280;64924;42.140;24.762;2023-07-22T09:12:53;99423.97;;;40.30;24.14
73870;BME280;64924;42.140;24.762;2023-07-22T09:15:19;99441.81;;;40.20;24.54
73870;BME280;64924;42.140;24.762;2023-07-22T09:17:46;99429.22;;;40.21;24.55
73870;BME280;64924;42.140;24.762;2023-07-22T09:20:13;99438.28;;;40.41;24.46
73870;BME280;64924;42.140;24.762;2023-07-22T09:22:49;99441.13;;;40.52;24.41
73870;BME280;64924;42.140;24.762;2023-07-22T09:25:23;99437.31;;;40.16;24.74
73870;BME280;64924;42.140;24.762;2023-07-22T09:27:53;99405.41;;;39.78;24.76
73870;BME280;64924;42.140;24.762;2023-07-22T09:30:30;99419.66;;;39.82;24.86
73870;BME280;64924;42.140;24.762;2023-07-22T09:33:01;99425.44;;;39.34;25.92
73870;BME280;64924;42.140;24.762;2023-07-22T09:35:47;99400.97;;;38.78;26.10
73870;BME280;64924;42.140;24.762;2023-07-22T09:38:13;99421.13;;;38.66;26.54
73870;BME280;64924;42.140;24.762;2023-07-22T09:40:41;99403.50;;;38.50;26.67
73870;BME280;64924;42.140;24.762;2023-07-22T09:43:10;99413.47;;;38.70;26.49
73870;BME280;64924;42.140;24.762;2023-07-22T09:45:35;99418.56;;;38.54;26.46
73870;BME280;64924;42.140;24.762;2023-07-22T09:48:03;99409.66;;;38.55;26.52
73870;BME280;64924;42.140;24.762;2023-07-22T09:50:29;99375.78;;;38.39;26.93
73870;BME280;64924;42.140;24.762;2023-07-22T09:52:58;99391.94;;;38.69;26.81
73870;BME280;64924;42.140;24.762;2023-07-22T09:55:26;99382.34;;;38.43;26.66
73870;BME280;64924;42.140;24.762;2023-07-22T09:58:02;99396.09;;;38.41;26.55
73870;BME280;64924;42.140;24.762;2023-07-22T10:00:32;99387.50;;;38.34;26.91
73870;BME280;64924;42.140;24.762;2023-07-22T10:02:59;99384.53;;;38.20;26.98
73870;BME280;64924;42.140;24.762;2023-07-22T10:05:26;99366.34;;;38.28;26.91
73870;BME280;64924;42.140;24.762;2023-07-22T10:07:56;99364.34;;;38.32;26.81
73870;BME280;64924;42.140;24.762;2023-07-22T10:10:34;99373.53;;;38.56;26.64
73870;BME280;64924;42.140;24.762;2023-07-22T10:13:00;99372.63;;;38.11;27.84
73870;BME280;64924;42.140;24.762;2023-07-22T10:15:28;99360.84;;;37.75;28.46
73870;BME280;64924;42.140;24.762;2023-07-22T10:17:55;99362.41;;;37.73;28.76
73870;BME280;64924;42.140;24.762;2023-07-22T10:20:21;99360.66;;;37.95;28.23
73870;BME280;64924;42.140;24.762;2023-07-22T10:22:48;99363.28;;;38.10;28.29
73870;BME280;64924;42.140;24.762;2023-07-22T10:25:16;99348.44;;;37.91;28.09
73870;BME280;64924;42.140;24.762;2023-07-22T10:27:43;99359.03;;;37.94;28.26
73870;BME280;64924;42.140;24.762;2023-07-22T10:30:13;99368.22;;;38.13;28.14
73870;BME280;64924;42.140;24.762;2023-07-22T10:35:08;99346.69;;;38.50;27.37
73870;BME280;64924;42.140;24.762;2023-07-22T10:37:36;99356.34;;;38.41;27.66
73870;BME280;64924;42.140;24.762;2023-07-22T10:42:51;99332.66;;;38.60;26.79
73870;BME280;64924;42.140;24.762;2023-07-22T10:45:28;99357.38;;;38.60;26.66
73870;BME280;64924;42.140;24.762;2023-07-22T10:48:21;99333.28;;;38.87;26.38
73870;BME280;64924;42.140;24.762;2023-07-22T10:50:51;99333.16;;;38.76;26.42
73870;BME280;64924;42.140;24.762;2023-07-22T10:56:15;99344.56;;;38.80;26.13
73870;BME280;64924;42.140;24.762;2023-07-22T11:06:29;99288.94;;;37.98;27.21
73870;BME280;64924;42.140;24.762;2023-07-22T11:08:55;99309.31;;;38.07;27.25
73870;BME280;64924;42.140;24.762;2023-07-22T11:11:20;99304.53;;;37.77;27.71
73870;BME280;64924;42.140;24.762;2023-07-22T11:13:46;99276.91;;;37.71;26.88
73870;BME280;64924;42.140;24.762;2023-07-22T11:16:12;99318.22;;;38.05;26.59
73870;BME280;64924;42.140;24.762;2023-07-22T11:18:39;99300.19;;;38.21;26.83
73870;BME280;64924;42.140;24.762;2023-07-22T11:21:09;99280.75;;;38.23;27.14
73870;BME280;64924;42.140;24.762;2023-07-22T11:23:35;99308.44;;;38.36;26.55
73870;BME280;64924;42.140;24.762;2023-07-22T11:26:02;99236.78;;;38.09;26.37
73870;BME280;64924;42.140;24.762;2023-07-22T11:28:28;99299.56;;;38.41;26.32
73870;BME280;64924;42.140;24.762;2023-07-22T11:30:54;99280.13;;;38.43;26.17
73870;BME280;64924;42.140;24.762;2023-07-22T11:33:19;99283.81;;;38.47;26.14
73870;BME280;64924;42.140;24.762;2023-07-22T11:35:45;99303.63;;;38.40;26.20
73870;BME280;64924;42.140;24.762;2023-07-22T11:38:13;99271.22;;;38.45;26.15
73870;BME280;64924;42.140;24.762;2023-07-22T11:40:38;99274.63;;;38.61;25.89
73870;BME280;64924;42.140;24.762;2023-07-22T11:43:04;99278.91;;;38.92;25.59
73870;BME280;64924;42.140;24.762;2023-07-22T11:45:31;99275.50;;;38.72;25.63
73870;BME280;64924;42.140;24.762;2023-07-22T11:47:56;99254.34;;;38.63;25.66
73870;BME280;64924;42.140;24.762;2023-07-22T11:50:33;99274.03;;;38.89;24.89
73870;BME280;64924;42.140;24.762;2023-07-22T11:52:59;99279.56;;;38.71;25.20
73870;BME280;64924;42.140;24.762;2023-07-22T11:55:25;99278.38;;;38.76;25.06
73870;BME280;64924;42.140;24.762;2023-07-22T11:57:54;99273.53;;;38.80;24.96
73870;BME280;64924;42.140;24.762;2023-07-22T12:00:20;99261.44;;;38.90;24.75
73870;BME280;64924;42.140;24.762;2023-07-22T12:02:46;99260.63;;;38.90;24.99
73870;BME280;64924;42.140;24.762;2023-07-22T12:05:20;99256.78;;;39.23;24.33
73870;BME280;64924;42.140;24.762;2023-07-22T12:07:46;99261.00;;;39.47;24.13
73870;BME280;64924;42.140;24.762;2023-07-22T12:10:12;99245.22;;;39.60;23.66
73870;BME280;64924;42.140;24.762;2023-07-22T12:12:45;99244.84;;;39.68;23.55
73870;BME280;64924;42.140;24.762;2023-07-22T12:15:13;99219.44;;;39.24;23.89
73870;BME280;64924;42.140;24.762;2023-07-22T12:20:19;99253.03;;;39.08;23.51
73870;BME280;64924;42.140;24.762;2023-07-22T12:22:48;99245.63;;;38.93;23.59
73870;BME280;64924;42.140;24.762;2023-07-22T12:25:13;99250.56;;;39.03;23.47
73870;BME280;64924;42.140;24.762;2023-07-22T12:27:39;99243.69;;;39.04;23.41
73870;BME280;64924;42.140;24.762;2023-07-22T12:30:05;99236.84;;;39.16;23.26
73870;BME280;64924;42.140;24.762;2023-07-22T12:32:32;99230.44;;;39.33;23.17
73870;BME280;64924;42.140;24.762;2023-07-22T12:34:58;99220.66;;;39.27;22.90
73870;BME280;64924;42.140;24.762;2023-07-22T12:37:24;99220.72;;;39.34;22.62
73870;BME280;64924;42.140;24.762;2023-07-22T12:39:51;99219.09;;;39.43;22.17
73870;BME280;64924;42.140;24.762;2023-07-22T12:42:16;99209.84;;;39.54;22.07
73870;BME280;64924;42.140;24.762;2023-07-22T12:44:42;99210.22;;;39.52;22.63
73870;BME280;64924;42.140;24.762;2023-07-22T12:47:07;99207.38;;;39.52;23.30
73870;BME280;64924;42.140;24.762;2023-07-22T12:49:33;99217.47;;;39.39;23.43
73870;BME280;64924;42.140;24.762;2023-07-22T12:51:59;99206.09;;;39.35;23.76
73870;BME280;64924;42.140;24.762;2023-07-22T12:54:29;99199.97;;;39.30;23.39
73870;BME280;64924;42.140;24.762;2023-07-22T12:56:56;99204.88;;;39.33;23.16
73870;BME280;64924;42.140;24.762;2023-07-22T12:59:21;99195.53;;;39.43;22.97
73870;BME280;64924;42.140;24.762;2023-07-22T13:01:47;99192.69;;;39.32;22.33
73870;BME280;64924;42.140;24.762;2023-07-22T13:04:12;99192.16;;;39.13;22.83
73870;BME280;64924;42.140;24.762;2023-07-22T13:06:38;99183.59;;;39.05;23.46